Time;durP1;ratioP1;P1;durP2;ratioP2;P2;SDS_P1;SDS_P2;PMS_P1;PMS_P2;Temp;Humidity;BMP_temperature;BMP_pressure;BME280_temperature;BME280_humidity;BME280_pressure;Samples;Min_cycle;Max_cycle;Signal;HPM_P1;HPM_P2
2022/01/03 00:00:31;;;;;;;1.27;1.20;;;;;;;10.05;78.24;100689.78;5090835;29;20103;-82
2022/01/03 00:03:05;;;;;;;1.20;0.85;;;;;;;10.00;78.64;100680.34;5086040;29;20036;-82
2022/01/03 00:05:37;;;;;;;0.50;0.50;;;;;;;9.98;78.21;100688.22;5082742;29;20048;-82
2022/01/03 00:08:09;;;;;;;0.73;0.73;;;;;;;9.99;77.87;100689.97;5076183;29;20447;-82
2022/01/03 00:10:42;;;;;;;0.50;0.50;;;;;;;9.95;79.28;100690.94;5092393;29;20099;-81
2022/01/03 00:13:12;;;;;;;0.80;0.80;;;;;;;9.90;79.69;100691.06;5060264;29;20040;-82
2022/01/03 00:15:52;;;;;;;23.52;2.17;;;;;;;9.91;79.64;100687.56;5079743;29;20144;-82
2022/01/03 00:18:23;;;;;;;7.97;1.38;;;;;;;9.92;79.85;100698.88;5063930;29;20036;-82
2022/01/03 00:20:59;;;;;;;4.13;0.82;;;;;;;9.93;80.07;100700.59;5054594;29;20079;-82
2022/01/03 00:23:41;;;;;;;0.80;0.80;;;;;;;9.95;80.29;100697.94;5060556;29;20036;-82
2022/01/03 00:26:16;;;;;;;1.45;1.30;;;;;;;9.91;80.85;100705.91;5050343;29;20464;-81
2022/01/03 00:28:54;;;;;;;3.30;1.65;;;;;;;9.88;80.98;100707.69;5053530;28;20036;-82
2022/01/03 00:31:39;;;;;;;1.05;0.47;;;;;;;9.90;80.88;100705.91;5082872;29;20657;-81
2022/01/03 00:34:14;;;;;;;0.95;0.95;;;;;;;9.86;80.24;100704.28;5080054;29;20052;-82
2022/01/03 00:36:50;;;;;;;1.02;0.85;;;;;;;9.86;80.04;100704.28;5064105;29;20040;-81
2022/01/03 00:39:21;;;;;;;0.77;0.77;;;;;;;9.86;79.89;100706.91;5076368;29;20039;-82
2022/01/03 00:41:51;;;;;;;3.40;1.10;;;;;;;9.86;79.79;100706.91;5067389;29;20017;-82
2022/01/03 00:44:22;;;;;;;4.40;1.25;;;;;;;9.85;79.46;100713.03;5078863;29;20127;-82
2022/01/03 00:46:53;;;;;;;1.35;1.25;;;;;;;9.85;79.57;100707.78;5052667;29;20031;-82
2022/01/03 00:49:24;;;;;;;1.05;1.05;;;;;;;9.87;79.11;100719.09;5105118;29;20057;-83
2022/01/03 00:51:55;;;;;;;2.83;2.53;;;;;;;9.88;79.23;100720.81;5086712;29;20130;-82
2022/01/03 00:54:35;;;;;;;2.30;1.25;;;;;;;9.82;79.11;100729.69;5059534;29;20048;-82
2022/01/03 00:57:35;;;;;;;0.85;0.85;;;;;;;9.85;78.71;100729.59;5103326;29;20047;-83
2022/01/03 01:00:20;;;;;;;0.40;0.40;;;;;;;9.82;78.36;100731.44;5054936;29;20048;-81
2022/01/03 01:03:15;;;;;;;;;;;;;;;;;;;;;
2022/01/03 01:05:49;;;;;;;2.15;1.58;;;;;;;9.88;78.91;100726.03;5066843;29;20151;-81
2022/01/03 01:08:23;;;;;;;1.15;1.05;;;;;;;9.82;78.76;100728.81;5081606;29;20040;-81
2022/01/03 01:10:59;;;;;;;0.63;0.63;;;;;;;9.80;79.15;100735.84;5063244;29;20170;-81
2022/01/03 01:13:33;;;;;;;2.28;1.00;;;;;;;9.80;79.24;100728.00;5068537;29;20162;-81
2022/01/03 01:16:09;;;;;;;0.63;0.63;;;;;;;9.81;79.66;100737.56;5063576;29;20036;-81
2022/01/03 01:18:43;;;;;;;;;;;;;;;9.77;79.36;100736.78;5074430;29;20040;-81
2022/01/03 01:21:14;;;;;;;0.55;0.55;;;;;;;9.73;79.62;100729.91;5064654;29;19919;-81
2022/01/03 01:23:49;;;;;;;0.82;0.82;;;;;;;9.77;79.25;100737.66;5074341;29;20059;-81
2022/01/03 01:29:11;;;;;;;0.93;0.93;;;;;;;9.76;78.70;100742.91;5060505;29;20416;-81
2022/01/03 01:31:50;;;;;;;0.50;0.50;;;;;;;9.79;79.01;100739.41;5048974;29;20118;-82
2022/01/03 01:34:26;;;;;;;1.73;1.10;;;;;;;9.72;79.63;100764.88;5078324;29;20092;-82
2022/01/03 01:37:01;;;;;;;1.02;1.02;;;;;;;9.75;78.92;100762.19;5082171;29;20035;-83
2022/01/03 01:39:35;;;;;;;0.40;0.40;;;;;;;9.78;79.38;100759.47;5065369;29;20048;-84
2022/01/03 01:42:13;;;;;;;0.52;0.52;;;;;;;9.73;79.12;100770.06;5053302;29;20035;-82
2022/01/03 01:44:50;;;;;;;0.93;0.93;;;;;;;9.70;79.05;100767.53;5080485;29;20044;-82
2022/01/03 01:47:22;;;;;;;0.60;0.60;;;;;;;9.69;78.96;100759.69;5051983;29;20115;-81
2022/01/03 01:49:56;;;;;;;0.32;0.32;;;;;;;9.75;78.46;100763.03;5094577;29;20036;-82
2022/01/03 01:52:27;;;;;;;0.40;0.40;;;;;;;9.70;79.01;100762.28;5074207;29;20165;-84
2022/01/03 01:55:02;;;;;;;0.30;0.30;;;;;;;9.64;78.58;100753.69;5080284;29;20588;-81
2022/01/03 01:57:55;;;;;;;0.77;0.77;;;;;;;9.64;78.55;100770.25;5063253;29;20141;-81
2022/01/03 02:00:26;;;;;;;0.55;0.55;;;;;;;9.66;78.72;100771.09;5097270;29;20040;-82
2022/01/03 02:03:03;;;;;;;0.63;0.63;;;;;;;9.64;78.79;100765.03;5098066;29;20024;-81
2022/01/03 02:05:38;;;;;;;0.60;0.60;;;;;;;9.61;78.93;100762.50;5050471;29;20135;-82
2022/01/03 02:08:12;;;;;;;0.40;0.40;;;;;;;9.58;79.02;100757.31;5085313;29;20099;-81
2022/01/03 02:11:03;;;;;;;0.40;0.40;;;;;;;9.56;78.97;100766.97;5046215;29;20051;-82
2022/01/03 02:13:36;;;;;;;2.92;2.63;;;;;;;9.59;78.65;100769.53;5072544;29;20398;-81
2022/01/03 02:16:08;;;;;;;0.63;0.63;;;;;;;9.58;78.31;100765.19;5072381;29;20123;-82
2022/01/03 02:18:43;;;;;;;1.38;1.20;;;;;;;9.58;78.31;100762.56;5057865;29;20066;-81
2022/01/03 02:21:17;;;;;;;0.40;0.40;;;;;;;9.55;78.64;100766.09;5082525;29;20107;-81
2022/01/03 02:23:55;;;;;;;1.13;1.05;;;;;;;9.57;78.33;100760.81;5079167;29;20052;-81
2022/01/03 02:26:35;;;;;;;0.50;0.50;;;;;;;9.55;78.39;100765.22;5052952;29;20083;-82
2022/01/03 02:29:06;;;;;;;0.40;0.40;;;;;;;9.57;77.88;100772.19;5073901;29;20048;-81
2022/01/03 02:31:38;;;;;;;0.45;0.45;;;;;;;9.58;78.06;100770.41;5085170;29;20064;-81
2022/01/03 02:34:09;;;;;;;1.00;1.00;;;;;;;9.53;78.29;100769.66;5072759;29;20072;-81
2022/01/03 02:36:48;;;;;;;1.48;1.38;;;;;;;9.55;78.72;100776.59;5083734;29;20103;-82
2022/01/03 02:39:22;;;;;;;0.60;0.60;;;;;;;9.64;77.96;100772.88;5082060;29;20051;-81
2022/01/03 02:41:53;;;;;;;0.40;0.40;;;;;;;9.59;78.67;100769.53;5051863;29;20024;-81
2022/01/03 02:44:24;;;;;;;0.30;0.30;;;;;;;9.57;78.10;100773.91;5082881;29;20141;-81
2022/01/03 02:46:54;;;;;;;0.60;0.60;;;;;;;9.57;78.50;100771.31;5070353;29;20474;-82
2022/01/03 02:49:27;;;;;;;2.05;0.75;;;;;;;9.54;78.72;100771.38;5068021;29;20056;-82
2022/01/03 02:51:58;;;;;;;0.60;0.60;;;;;;;9.52;78.43;100767.94;5052613;29;20040;-83
2022/01/03 02:54:31;;;;;;;0.57;0.57;;;;;;;9.47;78.75;100764.53;5080737;29;20050;-82
2022/01/03 02:57:09;;;;;;;;;;;;;;;9.42;78.77;100768.13;5100912;29;20096;-82
2022/01/03 02:59:40;;;;;;;0.40;0.40;;;;;;;9.47;78.81;100765.41;5065195;29;19923;-83
2022/01/03 03:02:13;;;;;;;1.20;1.20;;;;;;;9.38;79.00;100769.06;5106687;29;20059;-83
2022/01/03 03:05:10;;;;;;;0.40;0.40;;;;;;;9.45;79.33;100775.94;5088011;29;20028;-82
2022/01/03 03:07:45;;;;;;;0.40;0.40;;;;;;;9.37;79.18;100767.38;5095477;29;20052;-82
2022/01/03 03:10:19;;;;;;;1.20;1.20;;;;;;;9.35;79.08;100766.53;5066849;29;20044;-82
2022/01/03 03:12:53;;;;;;;0.68;0.68;;;;;;;9.35;78.95;100768.28;5075366;29;21145;-82
2022/01/03 03:15:26;;;;;;;1.17;1.17;;;;;;;9.34;78.76;100762.19;5065490;29;20526;-82
2022/01/03 03:17:57;;;;;;;0.38;0.38;;;;;;;9.31;79.30;100767.50;5068627;29;20060;-82
2022/01/03 03:20:33;;;;;;;0.70;0.70;;;;;;;9.32;79.26;100769.22;5088038;29;20044;-82
2022/01/03 03:23:03;;;;;;;0.70;0.70;;;;;;;9.30;79.24;100763.13;5083333;29;20088;-82
2022/01/03 03:25:37;;;;;;;6.45;1.70;;;;;;;9.33;78.78;100770.94;5081617;29;20048;-81
2022/01/03 03:28:12;;;;;;;;;;;;;;;9.28;79.00;100775.44;5072977;29;20028;-82
2022/01/03 03:30:48;;;;;;;0.50;0.50;;;;;;;9.22;79.31;100770.28;5032769;29;20002;-82
2022/01/03 03:33:30;;;;;;;3.25;1.35;;;;;;;9.21;79.07;100774.69;5080441;29;20040;-82
2022/01/03 03:36:04;;;;;;;0.60;0.60;;;;;;;9.20;79.00;100767.72;5073869;29;20132;-82
2022/01/03 03:38:35;;;;;;;0.65;0.65;;;;;;;9.20;79.05;100772.94;5076699;29;20099;-82
2022/01/03 03:41:05;;;;;;;0.40;0.40;;;;;;;9.18;79.23;100779.13;5065873;29;20040;-83
2022/01/03 03:43:36;;;;;;;0.60;0.60;;;;;;;9.19;79.10;100771.22;5040554;28;20448;-82
2022/01/03 03:46:10;;;;;;;1.23;1.23;;;;;;;9.16;79.24;100773.03;5095700;29;20039;-82
2022/01/03 03:48:46;;;;;;;2.47;2.25;;;;;;;9.13;78.87;100781.81;5055678;29;20028;-82
2022/01/03 03:51:17;;;;;;;0.50;0.50;;;;;;;9.14;78.97;100781.78;5047914;29;20068;-82
2022/01/03 03:53:48;;;;;;;1.08;1.02;;;;;;;9.23;78.71;100785.13;5064572;29;20040;-82
2022/01/03 03:56:28;;;;;;;4.57;1.65;;;;;;;9.25;78.88;100780.72;5054412;29;20047;-82
2022/01/03 03:58:59;;;;;;;0.40;0.40;;;;;;;9.25;78.68;100780.72;5039790;29;20058;-82
2022/01/03 04:01:30;;;;;;;1.00;1.00;;;;;;;9.24;78.69;100773.75;5087416;29;20032;-82
2022/01/03 04:04:01;;;;;;;8.25;1.52;;;;;;;9.29;78.78;100782.38;5039935;29;20124;-82
2022/01/03 04:06:34;;;;;;;0.50;0.50;;;;;;;9.29;78.74;100766.69;5077884;29;20044;-81
2022/01/03 04:09:04;;;;;;;0.40;0.40;;;;;;;9.22;78.64;100770.28;5061981;29;20048;-82
2022/01/03 04:11:40;;;;;;;2.95;1.20;;;;;;;9.24;78.36;100761.53;5078894;29;20534;-82
2022/01/03 04:14:11;;;;;;;11.13;2.22;;;;;;;9.25;78.48;100770.25;5029448;29;20083;-81
2022/01/03 04:16:44;;;;;;;0.40;0.40;;;;;;;9.22;78.73;100775.53;5057746;29;20115;-82
2022/01/03 04:19:14;;;;;;;1.00;1.00;;;;;;;9.25;78.92;100759.78;5068346;29;20109;-83
2022/01/03 04:21:45;;;;;;;0.30;0.30;;;;;;;9.19;78.54;100747.66;5067609;29;20027;-83
2022/01/03 04:24:16;;;;;;;0.40;0.40;;;;;;;9.23;78.29;100751.06;5073986;29;20172;-82
2022/01/03 04:26:49;;;;;;;0.30;0.30;;;;;;;9.24;78.26;100768.50;5076303;29;20115;-81
2022/01/03 04:29:22;;;;;;;0.30;0.30;;;;;;;9.20;78.57;100764.25;5077921;29;20040;-80
2022/01/03 04:31:55;;;;;;;0.60;0.60;;;;;;;9.14;78.26;100767.84;5070495;29;20073;-82
2022/01/03 04:34:46;;;;;;;0.70;0.70;;;;;;;9.12;78.46;100762.66;5050145;29;20099;-82
2022/01/03 04:37:17;;;;;;;;;;;;;;;9.15;78.24;100759.09;5065760;29;20103;-82
2022/01/03 04:39:50;;;;;;;0.68;0.68;;;;;;;9.14;78.16;100763.47;5080673;29;19923;-81
2022/01/03 04:42:20;;;;;;;1.30;1.20;;;;;;;9.14;78.14;100757.38;5080741;29;20096;-82
2022/01/03 04:44:51;;;;;;;0.40;0.40;;;;;;;9.18;77.76;100742.47;5080133;29;20052;-82
2022/01/03 04:47:22;;;;;;;3.42;1.92;;;;;;;9.14;77.67;100745.13;5083210;29;20040;-83
2022/01/03 04:49:55;;;;;;;0.40;0.40;;;;;;;9.14;78.11;100752.16;5064676;29;20044;-80
2022/01/03 04:52:29;;;;;;;0.40;0.40;;;;;;;9.13;77.89;100743.41;5066899;29;20499;-81
2022/01/03 04:55:01;;;;;;;0.50;0.50;;;;;;;9.11;77.98;100752.19;5092195;29;20040;-80
2022/01/03 04:57:34;;;;;;;0.93;0.93;;;;;;;9.10;77.38;100746.13;5081013;29;20127;-81
2022/01/03 05:00:06;;;;;;;;;;;;;;;9.08;78.01;100741.81;5097195;29;20052;-82
2022/01/03 05:03:07;;;;;;;0.50;0.50;;;;;;;9.11;78.18;100747.84;5082290;29;20013;-82
2022/01/03 05:05:37;;;;;;;0.40;0.40;;;;;;;9.10;78.26;100740.00;5063218;29;20534;-80
2022/01/03 05:08:08;;;;;;;0.30;0.30;;;;;;;9.07;78.04;100746.16;5081707;29;20032;-81
2022/01/03 05:10:44;;;;;;;1.20;1.13;;;;;;;9.06;77.83;100727.88;5080837;29;20039;-81
2022/01/03 05:13:14;;;;;;;1.98;1.25;;;;;;;9.08;77.75;100740.03;5081101;29;20036;-81
2022/01/03 05:15:47;;;;;;;0.40;0.40;;;;;;;9.06;77.70;100738.34;5069286;29;20064;-81
2022/01/03 05:18:22;;;;;;;0.65;0.65;;;;;;;9.06;77.86;100747.06;5079377;29;20566;-81
2022/01/03 05:21:13;;;;;;;0.60;0.60;;;;;;;9.10;77.87;100747.84;5079774;29;20703;-81
2022/01/03 05:23:49;;;;;;;0.80;0.80;;;;;;;9.08;78.39;100741.81;5057860;29;20050;-81
2022/01/03 05:26:43;;;;;;;0.40;0.40;;;;;;;9.12;77.68;100738.22;5089828;29;20032;-85
2022/01/03 05:30:14;;;;;;;3.55;1.63;;;;;;;9.13;77.84;100735.56;5023065;29;20133;-83
2022/01/03 05:33:40;;;;;;;;;;;;;;;;;;;;;
2022/01/03 05:37:23;;;;;;;0.85;0.82;;;;;;;9.22;78.13;100726.66;5006219;29;20121;-81
2022/01/03 05:39:54;;;;;;;2.22;1.20;;;;;;;9.19;77.84;100725.88;5017284;29;20051;-82
2022/01/03 05:42:47;;;;;;;;;;;;;;;;;;;;;
2022/01/03 05:46:20;;;;;;;1.02;1.02;;;;;;;9.22;78.12;100720.56;5022269;29;20140;-84
2022/01/03 05:58:27;;;;;;;0.82;0.82;;;;;;;9.29;77.74;100716.94;4978361;29;20653;-84
2022/01/03 06:01:28;;;;;;;1.58;1.48;;;;;;;9.27;78.44;100713.47;4961014;29;20066;-85
2022/01/03 06:17:29;;;;;;;0.40;0.40;;;;;;;9.17;78.08;100693.63;5329730;23;20046;-86
2022/01/03 06:20:45;;;;;;;0.57;0.57;;;;;;;9.17;78.31;100696.25;5115261;28;20046;-86
2022/01/03 06:23:46;;;;;;;1.02;0.93;;;;;;;9.20;77.80;100685.72;5152586;28;20084;-85
2022/01/03 06:35:29;;;;;;;0.38;0.38;;;;;;;9.14;77.87;100691.94;5001592;29;20073;-86
2022/01/03 06:38:15;;;;;;;2.70;2.10;;;;;;;9.13;77.89;100693.69;5015946;29;20081;-85
2022/01/03 06:44:07;;;;;;;0.40;0.40;;;;;;;9.11;77.82;100690.25;5176026;28;20266;-86
2022/01/03 06:54:37;;;;;;;0.65;0.65;;;;;;;9.16;78.45;100697.13;5107311;28;20273;-87
2022/01/03 06:57:15;;;;;;;0.68;0.68;;;;;;;9.11;78.51;100700.72;5127136;28;20107;-88
2022/01/03 07:00:11;;;;;;;0.40;0.40;;;;;;;9.16;78.68;100707.59;5139852;28;20050;-84
2022/01/03 07:03:23;;;;;;;10.30;2.05;;;;;;;9.11;79.37;100699.84;5168494;28;20035;-86
2022/01/03 07:05:54;;;;;;;1.95;1.75;;;;;;;9.13;79.47;100703.28;5120703;28;20046;-84
2022/01/03 07:08:27;;;;;;;0.60;0.60;;;;;;;9.16;78.88;100697.13;5159128;28;20503;-84
2022/01/03 07:11:06;;;;;;;1.60;1.17;;;;;;;9.12;79.33;100702.44;5117566;28;20039;-85
2022/01/03 07:19:57;;;;;;;1.10;0.70;;;;;;;9.06;82.43;100686.84;5148415;28;20100;-84
2022/01/03 07:22:28;;;;;;;0.30;0.30;;;;;;;9.02;82.79;100682.59;5152510;28;20035;-84
2022/01/03 07:24:58;;;;;;;0.73;0.73;;;;;;;9.04;82.00;100679.94;5153094;28;20558;-84
2022/01/03 07:27:29;;;;;;;0.63;0.63;;;;;;;9.00;82.42;100679.13;5137580;28;20601;-83
2022/01/03 07:29:59;;;;;;;1.08;1.05;;;;;;;9.01;82.19;100672.16;5137069;28;20104;-84
2022/01/03 07:32:30;;;;;;;0.55;0.55;;;;;;;9.03;81.57;100680.81;5132344;28;20035;-84
2022/01/03 07:35:00;;;;;;;1.13;1.10;;;;;;;9.00;81.46;100689.59;5144140;28;20065;-84
2022/01/03 07:37:31;;;;;;;0.90;0.90;;;;;;;9.01;80.97;100688.72;5138234;28;20057;-84
2022/01/03 07:40:01;;;;;;;0.50;0.50;;;;;;;8.98;81.13;100688.78;5144643;28;20047;-85
2022/01/03 07:42:32;;;;;;;0.60;0.60;;;;;;;8.97;81.03;100676.56;5165809;28;20109;-86
2022/01/03 07:45:03;;;;;;;0.52;0.52;;;;;;;9.01;81.02;100683.47;5148864;28;20050;-84
2022/01/03 07:47:34;;;;;;;1.48;1.38;;;;;;;9.03;81.02;100692.19;5135831;28;20411;-85
2022/01/03 07:50:07;;;;;;;1.48;1.38;;;;;;;8.96;81.30;100701.06;5145676;28;20062;-84
2022/01/03 07:52:38;;;;;;;2.80;1.40;;;;;;;9.00;80.90;100702.69;5137306;28;20041;-84
2022/01/03 07:55:11;;;;;;;0.50;0.50;;;;;;;8.99;80.98;100695.72;5143800;28;20794;-85
2022/01/03 07:57:42;;;;;;;20.05;3.72;;;;;;;8.98;81.70;100701.84;5137521;28;20133;-84
2022/01/03 08:00:15;;;;;;;4.80;0.52;;;;;;;9.03;81.45;100707.88;5137223;28;20042;-84
2022/01/03 08:02:45;;;;;;;0.68;0.68;;;;;;;8.97;81.82;100707.97;5139559;28;20438;-85
2022/01/03 08:30:21;;;;;;;;;;;;;;;;;;;;;
2022/01/03 08:33:53;;;;;;;0.40;0.40;;;;;;;9.09;83.42;100720.81;5147260;27;20467;-85
2022/01/03 08:36:23;;;;;;;0.30;0.30;;;;;;;9.09;82.68;100726.06;5140929;28;20058;-84
2022/01/03 08:38:54;;;;;;;1.85;1.42;;;;;;;9.08;83.51;100732.19;5154545;27;20118;-85
2022/01/03 08:41:24;;;;;;;0.38;0.38;;;;;;;9.08;83.23;100726.94;5130248;28;20027;-85
2022/01/03 08:43:55;;;;;;;2.15;1.52;;;;;;;9.13;82.67;100730.31;5150567;28;20053;-84
2022/01/03 08:46:26;;;;;;;0.40;0.40;;;;;;;9.14;82.66;100712.88;5150031;28;20167;-84
2022/01/03 08:48:56;;;;;;;5.82;1.85;;;;;;;9.15;82.91;100722.47;5132040;28;20046;-85
2022/01/03 08:51:27;;;;;;;2.67;2.47;;;;;;;9.17;82.08;100717.19;5133734;28;20023;-84
2022/01/03 08:53:58;;;;;;;0.55;0.55;;;;;;;9.21;82.01;100721.47;5131578;28;20054;-84
2022/01/03 08:56:28;;;;;;;2.88;1.10;;;;;;;9.20;81.99;100715.34;5116026;28;20097;-84
2022/01/03 08:58:59;;;;;;;0.40;0.40;;;;;;;9.21;81.53;100705.75;5132459;28;20043;-84
2022/01/03 09:01:30;;;;;;;0.45;0.45;;;;;;;9.23;81.14;100703.94;5152294;28;20109;-84
2022/01/03 09:04:00;;;;;;;0.40;0.40;;;;;;;9.24;80.91;100706.56;5149458;28;20074;-85
2022/01/03 09:06:33;;;;;;;0.80;0.80;;;;;;;9.24;80.62;100703.06;5136069;28;20038;-84
2022/01/03 09:09:05;;;;;;;1.23;1.13;;;;;;;9.24;80.36;100700.44;5140938;28;20180;-85
2022/01/03 09:11:36;;;;;;;1.25;1.25;;;;;;;9.29;79.48;100698.59;5202394;28;20031;-85
2022/01/03 09:14:06;;;;;;;1.10;1.02;;;;;;;9.31;78.95;100694.16;5138045;28;20051;-85
2022/01/03 09:16:37;;;;;;;0.55;0.55;;;;;;;9.32;78.78;100695.06;5132880;28;20042;-85
2022/01/03 09:19:07;;;;;;;0.93;0.90;;;;;;;9.33;78.79;100699.41;5127395;28;20042;-85
2022/01/03 09:21:38;;;;;;;0.40;0.40;;;;;;;9.32;78.88;100702.91;5133534;28;20427;-85
2022/01/03 09:30:06;;;;;;;1.35;1.27;;;;;;;9.37;78.66;100701.91;5129813;28;20043;-84
2022/01/03 09:32:36;;;;;;;0.57;0.57;;;;;;;9.38;77.90;100701.00;5130911;28;20426;-84
2022/01/03 09:35:08;;;;;;;0.45;0.45;;;;;;;9.42;78.32;100705.28;5131558;28;20133;-85
2022/01/03 09:37:40;;;;;;;2.08;1.27;;;;;;;9.44;78.43;100703.50;5150725;28;20034;-85
2022/01/03 09:40:11;;;;;;;0.57;0.57;;;;;;;9.51;78.01;100703.34;5132868;28;20043;-84
2022/01/03 09:42:43;;;;;;;0.40;0.40;;;;;;;9.56;77.95;100711.94;5117367;28;20092;-84
2022/01/03 09:45:15;;;;;;;0.70;0.63;;;;;;;9.58;77.59;100699.69;5116721;28;20544;-84
2022/01/03 09:47:47;;;;;;;0.30;0.30;;;;;;;9.59;77.80;100707.50;5115345;28;20502;-84
2022/01/03 09:50:21;;;;;;;30.88;1.65;;;;;;;9.69;77.63;100699.44;5135894;28;20112;-84
2022/01/03 09:52:51;;;;;;;3.50;1.98;;;;;;;9.69;77.85;100704.66;5127221;28;20035;-84
2022/01/03 09:55:22;;;;;;;0.50;0.50;;;;;;;9.68;77.48;100706.44;5109354;28;20180;-84
2022/01/03 09:57:55;;;;;;;0.40;0.40;;;;;;;9.68;77.41;100701.19;5114926;28;20030;-84
2022/01/03 10:00:26;;;;;;;0.40;0.40;;;;;;;9.70;77.55;100693.28;5103710;28;20027;-84
2022/01/03 10:02:57;;;;;;;0.57;0.57;;;;;;;9.68;77.61;100695.09;5119559;28;20227;-83
2022/01/03 10:05:28;;;;;;;0.68;0.68;;;;;;;9.69;77.32;100692.44;5117757;28;20043;-84
2022/01/03 10:07:59;;;;;;;0.77;0.77;;;;;;;9.72;77.36;100694.97;5135907;28;20094;-84
2022/01/03 10:10:30;;;;;;;0.30;0.30;;;;;;;9.70;76.94;100694.19;5103039;28;20049;-84
2022/01/03 10:13:00;;;;;;;0.40;0.40;;;;;;;9.73;77.39;100693.22;5121065;28;20467;-84
2022/01/03 10:15:32;;;;;;;0.40;0.40;;;;;;;9.74;76.92;100685.31;5135850;28;20146;-84
2022/01/03 10:18:02;;;;;;;1.13;1.05;;;;;;;9.74;76.93;100690.56;5100351;28;20051;-84
2022/01/03 10:20:39;;;;;;;1.20;0.85;;;;;;;9.79;77.33;100687.84;5119896;28;20476;-84
2022/01/03 10:23:13;;;;;;;1.20;1.10;;;;;;;9.80;76.94;100683.44;5135906;28;20261;-85
2022/01/03 10:25:46;;;;;;;2.38;2.17;;;;;;;9.85;76.97;100676.34;5135613;28;20121;-84
2022/01/03 10:28:22;;;;;;;4.75;0.95;;;;;;;9.84;77.00;100669.38;5121597;28;20065;-85
2022/01/03 10:30:53;;;;;;;0.85;0.85;;;;;;;9.88;77.30;100665.78;5135472;28;20039;-84
2022/01/03 10:33:24;;;;;;;0.40;0.40;;;;;;;9.87;77.11;100659.69;5137278;28;20050;-84
2022/01/03 10:35:56;;;;;;;0.35;0.35;;;;;;;9.88;77.55;100661.41;5118303;28;20126;-84
2022/01/03 10:38:33;;;;;;;0.50;0.50;;;;;;;9.91;77.26;100660.47;5119714;28;20031;-84
2022/01/03 10:41:10;;;;;;;0.40;0.40;;;;;;;9.98;77.26;100666.41;5134319;28;20042;-85
2022/01/03 10:43:45;;;;;;;0.80;0.80;;;;;;;10.00;77.40;100664.63;5135811;28;20073;-84
2022/01/03 10:46:28;;;;;;;0.32;0.32;;;;;;;9.99;77.51;100658.50;5135935;28;20076;-84
2022/01/03 10:49:10;;;;;;;0.77;0.77;;;;;;;10.03;77.44;100660.16;5117808;28;20042;-85
2022/01/03 10:51:41;;;;;;;1.20;0.80;;;;;;;9.99;77.06;100648.03;5108709;28;20035;-85
2022/01/03 10:54:16;;;;;;;0.40;0.40;;;;;;;10.02;77.00;100647.06;5185860;28;20399;-84
2022/01/03 10:56:50;;;;;;;0.40;0.40;;;;;;;10.04;76.91;100640.88;5101911;28;20041;-85
2022/01/03 10:59:28;;;;;;;0.55;0.55;;;;;;;10.06;77.09;100639.09;5103524;28;20583;-85
2022/01/03 11:01:59;;;;;;;0.30;0.30;;;;;;;10.10;76.83;100632.00;5129579;28;20047;-84
2022/01/03 11:04:55;;;;;;;0.60;0.60;;;;;;;10.11;76.40;100630.25;5115735;28;20061;-84
2022/01/03 11:13:21;;;;;;;0.95;0.95;;;;;;;10.19;76.63;100625.69;5153834;28;20065;-85
2022/01/03 11:15:52;;;;;;;1.15;1.15;;;;;;;10.23;76.64;100619.44;5109333;28;20077;-85
2022/01/03 11:18:26;;;;;;;0.50;0.50;;;;;;;10.25;76.15;100622.88;5135844;28;20480;-84
2022/01/03 11:21:14;;;;;;;0.40;0.40;;;;;;;10.33;76.49;100620.91;5110005;28;20069;-85
2022/01/03 11:24:08;;;;;;;0.63;0.63;;;;;;;10.35;76.90;100613.88;5130240;28;20029;-85
2022/01/03 11:26:47;;;;;;;0.30;0.30;;;;;;;10.42;76.95;100601.44;5119532;28;20098;-85
2022/01/03 11:29:18;;;;;;;1.30;0.70;;;;;;;10.34;76.66;100612.13;5114458;28;20047;-84
2022/01/03 11:31:51;;;;;;;1.35;1.25;;;;;;;10.33;77.07;100597.31;5150707;28;20067;-84
2022/01/03 11:34:24;;;;;;;3.00;1.38;;;;;;;10.33;76.79;100596.44;5115742;28;20101;-85
2022/01/03 11:36:55;;;;;;;0.47;0.47;;;;;;;10.31;76.43;100590.38;5116937;28;20035;-84
2022/01/03 11:39:28;;;;;;;0.90;0.90;;;;;;;10.30;76.81;100589.50;5105206;28;20449;-85
2022/01/03 11:41:59;;;;;;;0.63;0.63;;;;;;;10.29;76.99;100585.16;5133912;28;20034;-85
2022/01/03 11:44:31;;;;;;;0.45;0.45;;;;;;;10.28;76.90;100588.72;5117664;28;20041;-85
2022/01/03 11:47:02;;;;;;;0.80;0.80;;;;;;;10.22;76.78;100578.38;5109921;28;20034;-85
2022/01/03 11:49:36;;;;;;;1.25;1.15;;;;;;;10.28;76.68;100577.34;5118064;28;20451;-85
2022/01/03 11:52:12;;;;;;;5.00;1.40;;;;;;;10.28;76.70;100575.59;5120080;28;20511;-85
2022/01/03 11:54:43;;;;;;;4.30;1.38;;;;;;;10.16;76.75;100574.19;5147011;23;20054;-84
2022/01/03 11:57:45;;;;;;;0.60;0.60;;;;;;;10.16;77.35;100568.06;5111399;28;20040;-84
2022/01/03 12:05:56;;;;;;;0.30;0.30;;;;;;;10.16;77.28;100565.44;5120069;28;20375;-83
2022/01/03 12:08:29;;;;;;;1.20;0.52;;;;;;;10.11;77.03;100560.31;5099176;29;20042;-83
2022/01/03 12:11:02;;;;;;;0.40;0.40;;;;;;;10.10;77.56;100565.63;5086909;28;20070;-84
2022/01/03 12:13:49;;;;;;;0.40;0.40;;;;;;;10.14;77.30;100551.50;5063947;28;20024;-84
2022/01/03 12:16:39;;;;;;;0.52;0.52;;;;;;;10.11;77.72;100552.47;5092533;29;20040;-84
2022/01/03 12:19:14;;;;;;;3.72;2.05;;;;;;;10.21;77.50;100543.44;5072325;28;20044;-84
2022/01/03 12:21:50;;;;;;;0.30;0.30;;;;;;;10.08;78.67;100548.16;5097251;28;20050;-84
2022/01/03 12:24:27;;;;;;;1.50;1.05;;;;;;;10.01;79.84;100557.09;5072469;28;20044;-84
2022/01/03 12:27:09;;;;;;;0.80;0.80;;;;;;;9.94;81.97;100563.41;5112340;28;20111;-84
2022/01/03 12:30:11;;;;;;;0.88;0.88;;;;;;;9.79;82.95;100563.84;5114994;28;20310;-85
2022/01/03 12:33:08;;;;;;;1.10;1.10;;;;;;;9.75;83.76;100563.91;5082554;28;20044;-86
2022/01/03 12:35:41;;;;;;;0.52;0.50;;;;;;;9.73;84.89;100557.00;5071981;28;20051;-86
2022/01/03 12:38:22;;;;;;;0.77;0.77;;;;;;;9.60;84.18;100545.97;5095358;28;20225;-85
2022/01/03 12:40:56;;;;;;;25.67;2.92;;;;;;;9.63;83.78;100540.63;5078678;28;20050;-86
2022/01/03 12:43:35;;;;;;;0.40;0.40;;;;;;;9.47;82.75;100552.41;5094407;28;20438;-86
2022/01/03 12:46:15;;;;;;;0.35;0.35;;;;;;;9.44;83.79;100541.13;5077991;28;20075;-85
2022/01/03 12:48:46;;;;;;;0.40;0.40;;;;;;;9.46;83.39;100546.31;5081719;28;20408;-85
2022/01/03 12:51:17;;;;;;;0.32;0.32;;;;;;;9.53;83.40;100547.03;5072314;28;20035;-85
2022/01/03 12:53:49;;;;;;;0.30;0.30;;;;;;;9.40;83.10;100512.44;5057867;28;20023;-83
2022/01/03 12:56:30;;;;;;;0.80;0.80;;;;;;;9.25;83.22;100524.13;5075095;28;20051;-84
2022/01/03 12:59:09;;;;;;;0.40;0.40;;;;;;;9.22;83.84;100505.88;5088279;28;20123;-84
2022/01/03 13:01:40;;;;;;;1.17;0.73;;;;;;;9.28;83.79;100500.50;5067081;28;20040;-84
2022/01/03 13:04:21;;;;;;;23.90;1.55;;;;;;;9.32;84.41;100493.44;5074257;28;20035;-84
2022/01/03 13:07:00;;;;;;;0.30;0.30;;;;;;;9.47;83.99;100479.06;5106331;28;20026;-84
2022/01/03 13:09:31;;;;;;;0.30;0.30;;;;;;;9.41;83.47;100467.88;5071066;29;20055;-84
2022/01/03 13:12:05;;;;;;;0.73;0.73;;;;;;;9.18;86.78;100480.69;5092557;29;20024;-84
2022/01/03 13:14:36;;;;;;;0.30;0.30;;;;;;;9.21;86.49;100475.41;5094644;29;20059;-82
2022/01/03 13:17:06;;;;;;;0.95;0.95;;;;;;;9.17;86.84;100481.59;5077593;28;20066;-82
2022/01/03 13:19:37;;;;;;;1.60;1.50;;;;;;;9.24;86.52;100470.06;5070535;28;20138;-84
2022/01/03 13:22:10;;;;;;;0.40;0.40;;;;;;;9.20;86.19;100466.66;5104758;28;20173;-83
2022/01/03 13:24:46;;;;;;;11.23;1.75;;;;;;;9.19;85.80;100459.69;5097750;28;20048;-83
2022/01/03 13:27:17;;;;;;;0.30;0.30;;;;;;;9.15;85.65;100452.84;5086152;28;20107;-84
2022/01/03 13:29:48;;;;;;;0.30;0.30;;;;;;;9.14;85.87;100444.13;5081141;28;20044;-84
2022/01/03 13:32:26;;;;;;;0.57;0.57;;;;;;;9.14;86.12;100441.50;5085460;28;20024;-82
2022/01/03 13:35:05;;;;;;;0.82;0.82;;;;;;;9.17;85.25;100443.19;5092534;28;20063;-84
2022/01/03 13:37:36;;;;;;;0.30;0.30;;;;;;;9.20;85.14;100457.97;5103768;28;20695;-82
2022/01/03 13:40:07;;;;;;;0.47;0.47;;;;;;;9.17;85.58;100452.78;5104544;28;20043;-84
2022/01/03 13:42:45;;;;;;;0.93;0.93;;;;;;;9.20;85.21;100447.50;5105049;28;20070;-85
2022/01/03 13:50:56;;;;;;;0.40;0.40;;;;;;;9.12;83.43;100445.94;5080778;28;20039;-85
2022/01/03 13:53:26;;;;;;;4.47;1.58;;;;;;;9.11;82.93;100448.56;5073477;29;20027;-84
2022/01/03 13:55:57;;;;;;;4.85;2.45;;;;;;;9.12;83.11;100447.69;5087565;28;20351;-86
2022/01/03 13:58:28;;;;;;;0.30;0.30;;;;;;;9.12;83.02;100448.56;5064290;28;20519;-86
2022/01/03 14:01:01;;;;;;;0.40;0.40;;;;;;;9.13;82.92;100460.72;5092060;29;20545;-85